Time;durP1;ratioP1;P1;durP2;ratioP2;P2;SDS_P1;SDS_P2;PMS_P1;PMS_P2;Temp;Humidity;BMP_temperature;BMP_pressure;BME280_temperature;BME280_humidity;BME280_pressure;Samples;Min_cycle;Max_cycle;Signal;HPM_P1;HPM_P2
2023/03/15 00:01:35;;;;;;;2.13;2.03;;;;;;;-0.06;100.00;96287.88;5018947;28;20657;-67
2023/03/15 00:04:04;;;;;;;2.27;2.17;;;;;;;-0.05;100.00;96292.13;5020159;28;20731;-66
2023/03/15 00:06:33;;;;;;;2.00;1.93;;;;;;;-0.07;100.00;96299.25;5036632;28;20233;-66
2023/03/15 00:09:01;;;;;;;2.40;2.30;;;;;;;-0.08;100.00;96297.63;4998432;28;20526;-65
2023/03/15 00:11:31;;;;;;;2.07;1.97;;;;;;;-0.07;100.00;96294.88;5043394;28;20203;-65
2023/03/15 00:14:00;;;;;;;1.90;1.80;;;;;;;-0.14;100.00;96278.19;5038069;28;20591;-66
2023/03/15 00:16:28;;;;;;;1.80;1.70;;;;;;;-0.04;100.00;96275.53;5035047;28;20480;-66
2023/03/15 00:18:56;;;;;;;2.20;2.10;;;;;;;-0.09;100.00;96278.59;5024822;28;20322;-66
2023/03/15 00:21:24;;;;;;;2.03;1.93;;;;;;;-0.06;100.00;96293.09;5040651;28;20209;-66
2023/03/15 00:23:52;;;;;;;1.83;1.73;;;;;;;-0.04;100.00;96310.25;4981749;28;20302;-67
2023/03/15 00:26:19;;;;;;;1.80;1.70;;;;;;;-0.08;100.00;96321.91;5049259;28;20808;-66
2023/03/15 00:28:48;;;;;;;1.80;1.70;;;;;;;-0.03;100.00;96324.91;5054842;28;20203;-67
2023/03/15 00:31:17;;;;;;;2.07;1.97;;;;;;;0.01;100.00;96335.88;5049325;28;20526;-66
2023/03/15 00:33:45;;;;;;;2.17;2.07;;;;;;;0.06;100.00;96340.66;5026265;28;20233;-67
2023/03/15 00:36:14;;;;;;;2.60;2.10;;;;;;;0.06;100.00;96346.69;5040748;28;20221;-66
2023/03/15 00:38:42;;;;;;;2.13;1.83;;;;;;;0.07;100.00;96355.31;5041829;28;20199;-66
2023/03/15 00:41:12;;;;;;;2.00;1.90;;;;;;;0.11;100.00;96354.09;5001275;28;20861;-65
2023/03/15 00:43:40;;;;;;;2.97;2.13;;;;;;;0.08;100.00;96365.63;5041589;28;20204;-68
2023/03/15 00:46:09;;;;;;;2.23;1.80;;;;;;;0.10;100.00;96368.06;5043474;28;20232;-67
2023/03/15 00:48:38;;;;;;;2.00;1.90;;;;;;;0.03;100.00;96361.78;5022660;28;20260;-67
2023/03/15 00:51:07;;;;;;;2.47;2.37;;;;;;;0.08;100.00;96364.78;5040784;28;20734;-65
2023/03/15 00:53:36;;;;;;;3.03;2.70;;;;;;;0.08;100.00;96367.38;5039124;28;20306;-67
2023/03/15 00:56:05;;;;;;;3.03;2.80;;;;;;;0.13;100.00;96360.81;5001769;28;20242;-65
2023/03/15 00:58:32;;;;;;;3.07;2.00;;;;;;;0.14;100.00;96366.81;5047797;28;20597;-66
2023/03/15 01:01:00;;;;;;;2.27;2.03;;;;;;;0.21;100.00;96369.72;5039339;28;20206;-66
2023/03/15 01:03:29;;;;;;;3.17;2.83;;;;;;;0.26;100.00;96368.34;5044812;28;20210;-68
2023/03/15 01:05:57;;;;;;;3.40;3.17;;;;;;;0.16;100.00;96374.50;5033206;28;20293;-67
2023/03/15 01:08:24;;;;;;;3.30;2.97;;;;;;;0.12;100.00;96376.56;5039641;28;20666;-64
2023/03/15 01:10:52;;;;;;;5.10;3.10;;;;;;;0.09;100.00;96382.06;5000330;28;20709;-66
2023/03/15 01:13:20;;;;;;;3.10;2.90;;;;;;;0.04;100.00;96379.03;5035528;28;20540;-67
2023/03/15 01:15:47;;;;;;;3.43;2.70;;;;;;;0.12;100.00;96380.00;5031700;28;20742;-67
2023/03/15 01:18:15;;;;;;;3.07;2.83;;;;;;;0.03;100.00;96362.59;5040287;28;20207;-65
2023/03/15 01:20:44;;;;;;;3.30;3.10;;;;;;;0.07;100.00;96368.34;5023579;28;20223;-67
2023/03/15 01:23:12;;;;;;;6.33;3.13;;;;;;;0.12;100.00;96376.56;5037934;28;20394;-66
2023/03/15 01:25:40;;;;;;;2.83;2.63;;;;;;;-0.03;100.00;96361.38;5027231;28;20213;-66
2023/03/15 01:28:08;;;;;;;2.80;2.60;;;;;;;0.06;100.00;96377.13;5036213;28;20414;-67
2023/03/15 01:30:35;;;;;;;7.07;3.30;;;;;;;0.05;100.00;96380.69;5047291;28;20203;-67
2023/03/15 01:33:03;;;;;;;4.73;3.30;;;;;;;0.03;100.00;96380.00;5051422;28;20375;-65
2023/03/15 01:35:31;;;;;;;6.47;3.50;;;;;;;0.04;100.00;96377.28;5026681;28;20549;-64
2023/03/15 01:38:00;;;;;;;5.30;3.07;;;;;;;0.02;100.00;96383.56;5036307;28;20230;-66
2023/03/15 01:40:27;;;;;;;4.50;3.93;;;;;;;0.02;100.00;96380.97;5037471;28;20666;-66
2023/03/15 01:43:14;;;;;;;2.70;2.50;;;;;;;0.09;100.00;96379.44;5000668;28;20238;-66
2023/03/15 01:46:07;;;;;;;3.00;2.80;;;;;;;0.09;100.00;96366.41;5034386;28;20682;-67
2023/03/15 01:48:37;;;;;;;5.10;3.20;;;;;;;0.18;100.00;96376.00;5028874;28;20456;-67
2023/03/15 01:51:09;;;;;;;2.70;2.50;;;;;;;0.14;100.00;96369.44;5019444;28;20198;-67
2023/03/15 01:53:39;;;;;;;3.23;2.93;;;;;;;0.16;100.00;96377.94;5037067;28;20414;-67
2023/03/15 01:56:07;;;;;;;3.57;3.03;;;;;;;0.09;100.00;96387.25;5040066;28;20615;-66
2023/03/15 01:58:36;;;;;;;3.53;3.07;;;;;;;-0.01;100.00;96384.66;4972337;28;20218;-66
2023/03/15 02:01:04;;;;;;;5.40;3.00;;;;;;;-0.01;100.00;96393.31;5041289;28;20664;-67
2023/03/15 02:03:35;;;;;;;3.37;2.73;;;;;;;0.03;100.00;96388.66;5028256;28;20636;-65
2023/03/15 02:06:05;;;;;;;3.10;2.90;;;;;;;0.07;100.00;96395.22;5024346;28;20231;-67
2023/03/15 02:08:39;;;;;;;3.40;3.10;;;;;;;0.10;100.00;96401.94;5034714;28;20210;-66
2023/03/15 02:11:07;;;;;;;3.77;3.10;;;;;;;0.10;100.00;96401.94;5036984;28;20213;-67
2023/03/15 02:13:35;;;;;;;3.93;3.27;;;;;;;0.04;100.00;96408.53;4999505;28;20215;-67
2023/03/15 02:16:05;;;;;;;3.87;3.53;;;;;;;-0.06;100.00;96410.28;5034806;28;20609;-67
2023/03/15 02:18:35;;;;;;;3.57;3.37;;;;;;;-0.01;100.00;96428.94;5033215;28;20446;-66
2023/03/15 02:21:08;;;;;;;6.33;3.73;;;;;;;-0.05;100.00;96432.75;5022104;28;20302;-67
2023/03/15 02:23:37;;;;;;;4.17;3.77;;;;;;;-0.01;100.00;96441.94;5030426;28;20643;-66
2023/03/15 02:26:14;;;;;;;4.50;3.80;;;;;;;-0.06;100.00;96438.94;5038613;28;20218;-66
2023/03/15 02:28:43;;;;;;;4.30;3.80;;;;;;;-0.03;100.00;96439.50;4994821;28;20726;-65
2023/03/15 02:31:11;;;;;;;4.23;3.30;;;;;;;0.01;100.00;96460.06;5031150;28;20203;-67
2023/03/15 02:33:42;;;;;;;4.03;3.53;;;;;;;-0.03;100.00;96459.50;5044298;28;20578;-66
2023/03/15 02:36:14;;;;;;;4.60;3.20;;;;;;;-0.06;100.00;96459.78;5023297;28;20736;-68
2023/03/15 02:38:42;;;;;;;4.10;3.80;;;;;;;-0.15;100.00;96464.84;5041650;28;20210;-66
2023/03/15 02:41:10;;;;;;;4.33;3.87;;;;;;;-0.11;100.00;96462.78;5033877;28;20652;-68
2023/03/15 02:43:39;;;;;;;4.00;3.67;;;;;;;-0.15;100.00;96467.44;5026043;28;20567;-67
2023/03/15 02:46:08;;;;;;;5.60;3.23;;;;;;;-0.11;100.00;96481.03;5015202;28;20806;-66
2023/03/15 02:48:37;;;;;;;13.10;3.80;;;;;;;-0.28;100.00;96492.06;5038616;28;20217;-68
2023/03/15 02:51:05;;;;;;;5.53;3.00;;;;;;;-0.24;100.00;96490.84;5026867;28;20673;-67
2023/03/15 02:53:33;;;;;;;7.60;3.30;;;;;;;-0.36;100.00;96495.34;5034302;28;20237;-68
2023/03/15 02:56:02;;;;;;;6.07;3.30;;;;;;;-0.42;100.00;96511.47;5040319;28;20835;-68
2023/03/15 02:58:31;;;;;;;5.80;2.93;;;;;;;-0.45;100.00;96509.97;5041837;28;20209;-68
2023/03/15 03:00:58;;;;;;;5.53;3.53;;;;;;;-0.40;100.00;96509.56;4998680;28;20301;-67
2023/03/15 03:03:27;;;;;;;7.73;3.57;;;;;;;-0.41;100.00;96524.38;5046576;28;20676;-67
2023/03/15 03:05:55;;;;;;;8.93;3.67;;;;;;;-0.46;100.00;96527.34;5025811;28;20194;-66
2023/03/15 03:08:23;;;;;;;7.87;3.40;;;;;;;-0.44;100.00;96530.66;5035177;28;20278;-66
2023/03/15 03:10:50;;;;;;;3.87;2.90;;;;;;;-0.48;100.00;96536.28;5029757;28;20403;-67
2023/03/15 03:13:18;;;;;;;8.90;2.97;;;;;;;-0.48;100.00;96550.09;5037980;28;20575;-68
2023/03/15 03:15:45;;;;;;;6.07;2.93;;;;;;;-0.51;100.00;96539.13;5001289;28;20231;-68
2023/03/15 03:18:13;;;;;;;8.57;3.03;;;;;;;-0.48;100.00;96539.69;5046696;28;20198;-68
2023/03/15 03:20:44;;;;;;;3.70;3.30;;;;;;;-0.47;100.00;96537.91;5036505;28;20713;-68
2023/03/15 03:23:12;;;;;;;6.47;3.63;;;;;;;-0.45;100.00;96547.22;5019965;28;20219;-67
2023/03/15 03:25:40;;;;;;;5.00;3.83;;;;;;;-0.45;100.00;96549.81;5039264;28;20618;-69
2023/03/15 03:28:07;;;;;;;5.57;3.50;;;;;;;-0.53;100.00;96562.69;5034032;28;20403;-67
2023/03/15 03:30:36;;;;;;;5.77;3.97;;;;;;;-0.53;100.00;96574.88;5040220;28;20296;-68
2023/03/15 03:33:04;;;;;;;6.60;3.90;;;;;;;-0.48;100.00;96577.91;5001236;28;22214;-68
2023/03/15 03:35:32;;;;;;;4.80;3.70;;;;;;;-0.48;100.00;96581.31;5008866;28;20804;-67
2023/03/15 03:38:01;;;;;;;6.77;4.23;;;;;;;-0.44;100.00;96590.53;5019314;28;20234;-66
2023/03/15 03:40:28;;;;;;;4.27;3.77;;;;;;;-0.41;100.00;96586.00;5034960;28;20210;-67
2023/03/15 03:42:56;;;;;;;6.97;4.47;;;;;;;-0.38;100.00;96596.16;5036770;28;20583;-67
2023/03/15 03:45:24;;;;;;;4.50;4.10;;;;;;;-0.49;100.00;96610.91;5031765;28;20200;-68
2023/03/15 03:47:51;;;;;;;4.40;4.00;;;;;;;-0.45;100.00;96601.06;4976830;28;20231;-67
2023/03/15 03:50:19;;;;;;;4.20;3.80;;;;;;;-0.51;100.00;96610.22;5033735;28;20207;-68
2023/03/15 03:52:47;;;;;;;4.33;3.90;;;;;;;-0.50;100.00;96622.28;5037187;28;20207;-67
2023/03/15 03:55:16;;;;;;;6.10;4.23;;;;;;;-0.52;100.00;96626.78;5019578;28;20748;-68
2023/03/15 03:57:44;;;;;;;6.67;3.97;;;;;;;-0.53;100.00;96629.53;5043729;28;20431;-66
2023/03/15 04:00:14;;;;;;;5.30;4.03;;;;;;;-0.54;100.00;96638.28;5037225;28;20206;-68
2023/03/15 04:02:42;;;;;;;4.73;4.37;;;;;;;-0.53;100.00;96643.34;4982489;28;20642;-68
2023/03/15 04:05:11;;;;;;;4.73;4.23;;;;;;;-0.47;100.00;96647.22;5043295;28;20468;-68
2023/03/15 04:07:38;;;;;;;8.13;4.20;;;;;;;-0.53;100.00;96647.75;5031937;28;20439;-67
2023/03/15 04:10:06;;;;;;;6.60;4.47;;;;;;;-0.50;100.00;96660.50;4997468;28;20793;-67
2023/03/15 04:12:35;;;;;;;7.53;4.50;;;;;;;-0.53;100.00;96660.75;5038866;28;20425;-68
2023/03/15 04:15:04;;;;;;;5.00;4.50;;;;;;;-0.55;100.00;96662.66;5038816;28;20679;-67
2023/03/15 04:17:31;;;;;;;7.17;4.17;;;;;;;-0.55;100.00;96666.06;5029752;28;20545;-68
2023/03/15 04:20:03;;;;;;;7.47;4.20;;;;;;;-0.54;100.00;96669.53;4996203;28;20210;-67
2023/03/15 04:22:33;;;;;;;7.23;4.20;;;;;;;-0.55;100.00;96678.28;5037128;28;20502;-68
2023/03/15 04:25:01;;;;;;;4.17;3.63;;;;;;;-0.53;100.00;96679.78;5024328;28;20213;-67
2023/03/15 04:27:29;;;;;;;6.53;4.03;;;;;;;-0.51;100.00;96692.69;5034854;28;20708;-67
2023/03/15 04:29:58;;;;;;;4.20;3.80;;;;;;;-0.54;100.00;96690.34;4983733;28;21026;-69
2023/03/15 04:32:26;;;;;;;4.87;4.13;;;;;;;-0.50;100.00;96686.53;5040153;28;20583;-67
2023/03/15 04:34:54;;;;;;;4.73;4.33;;;;;;;-0.55;100.00;96693.91;4998977;28;20203;-67
2023/03/15 04:37:22;;;;;;;9.20;4.33;;;;;;;-0.52;100.00;96698.84;5034390;28;20296;-68
2023/03/15 04:39:51;;;;;;;5.90;4.00;;;;;;;-0.49;100.00;96699.41;5024940;28;20214;-67
2023/03/15 04:42:19;;;;;;;5.10;4.00;;;;;;;-0.52;100.00;96704.06;5035467;28;20682;-68
2023/03/15 04:44:46;;;;;;;5.00;4.50;;;;;;;-0.52;100.00;96701.44;5032955;28;20208;-68
2023/03/15 04:47:15;;;;;;;8.43;4.50;;;;;;;-0.48;100.00;96705.44;5030134;28;20234;-67
2023/03/15 04:49:43;;;;;;;6.03;4.03;;;;;;;-0.51;100.00;96716.13;4983190;28;20223;-68
2023/03/15 04:52:11;;;;;;;4.87;4.37;;;;;;;-0.54;100.00;96729.38;5032473;28;20195;-67
2023/03/15 04:54:39;;;;;;;4.93;4.43;;;;;;;-0.61;100.00;96732.47;5024671;28;20275;-68
2023/03/15 04:57:07;;;;;;;5.53;4.47;;;;;;;-0.51;100.00;96742.94;5035911;28;20264;-67
2023/03/15 04:59:34;;;;;;;4.27;3.97;;;;;;;-0.55;100.00;96749.34;5040365;28;20570;-67
2023/03/15 05:02:02;;;;;;;5.13;4.63;;;;;;;-0.55;100.00;96745.94;5034402;28;20953;-68
2023/03/15 05:04:32;;;;;;;8.27;4.53;;;;;;;-0.56;100.00;96757.31;4983792;28;20629;-68
2023/03/15 05:06:59;;;;;;;7.10;4.73;;;;;;;-0.63;100.00;96755.19;5042632;28;21197;-68
2023/03/15 05:09:27;;;;;;;4.67;4.20;;;;;;;-0.59;100.00;96760.97;5044832;28;20211;-67
2023/03/15 05:11:54;;;;;;;5.97;4.57;;;;;;;-0.64;100.00;96766.53;5030020;28;20560;-68
2023/03/15 05:14:22;;;;;;;6.13;5.10;;;;;;;-0.69;100.00;96763.47;5044260;28;20304;-67
2023/03/15 05:16:54;;;;;;;6.83;5.43;;;;;;;-0.78;100.00;96766.84;5030670;28;20450;-66
2023/03/15 05:19:22;;;;;;;6.50;5.20;;;;;;;-0.83;100.00;96776.78;5039333;28;20711;-67
2023/03/15 05:21:53;;;;;;;8.47;5.70;;;;;;;-0.89;100.00;96783.28;4985548;28;20737;-67
2023/03/15 05:24:21;;;;;;;9.97;5.60;;;;;;;-0.91;100.00;96793.00;5032741;28;20211;-68
2023/03/15 05:26:48;;;;;;;7.80;6.30;;;;;;;-0.96;100.00;96795.13;5029056;28;20222;-68
2023/03/15 05:29:16;;;;;;;8.23;5.60;;;;;;;-1.02;100.00;96810.28;5036743;28;20214;-67
2023/03/15 05:31:44;;;;;;;12.13;5.53;;;;;;;-1.04;100.00;96812.19;5038282;28;20199;-67
2023/03/15 05:34:12;;;;;;;8.10;6.43;;;;;;;-0.99;100.00;96808.38;5039904;28;20203;-69
2023/03/15 05:36:40;;;;;;;6.87;6.17;;;;;;;-1.03;100.00;96815.59;4982364;28;20223;-68
2023/03/15 05:39:10;;;;;;;10.17;6.70;;;;;;;-1.00;100.00;96828.34;5046501;28;20205;-69
2023/03/15 05:41:37;;;;;;;7.20;6.13;;;;;;;-1.10;100.00;96825.66;5042162;28;20371;-68
2023/03/15 05:44:05;;;;;;;10.47;6.40;;;;;;;-1.10;100.00;96830.84;5034133;28;20297;-66
2023/03/15 05:46:33;;;;;;;10.23;6.83;;;;;;;-1.13;100.00;96833.69;5043387;28;20229;-69
2023/03/15 05:49:00;;;;;;;12.50;5.73;;;;;;;-1.19;100.00;96835.00;5041870;28;20980;-68
2023/03/15 05:51:28;;;;;;;9.10;5.53;;;;;;;-1.23;100.00;96843.13;5001921;28;20431;-68
2023/03/15 05:53:56;;;;;;;7.57;6.50;;;;;;;-1.28;100.00;96843.50;5041743;28;20195;-68
2023/03/15 05:56:25;;;;;;;7.77;5.50;;;;;;;-1.33;100.00;96850.81;5034810;28;20314;-67
2023/03/15 05:58:52;;;;;;;7.40;4.73;;;;;;;-1.30;100.00;96850.59;5026996;28;20435;-68
2023/03/15 06:01:20;;;;;;;6.30;5.43;;;;;;;-1.27;100.00;96862.50;5027303;28;20207;-67
2023/03/15 06:03:48;;;;;;;6.33;5.00;;;;;;;-1.27;100.00;96870.31;5036492;28;20416;-67
2023/03/15 06:06:16;;;;;;;5.73;5.00;;;;;;;-1.20;100.00;96874.09;5037469;28;20253;-69
2023/03/15 06:08:43;;;;;;;5.63;5.20;;;;;;;-1.18;100.00;96878.25;4990339;28;20223;-68
2023/03/15 06:11:11;;;;;;;7.80;5.73;;;;;;;-1.23;100.00;96875.19;5022559;28;20581;-68
2023/03/15 06:13:40;;;;;;;6.60;5.57;;;;;;;-1.14;100.00;96889.22;5021981;28;20546;-67
2023/03/15 06:16:07;;;;;;;6.30;4.73;;;;;;;-1.10;100.00;96888.06;5037574;28;20660;-67
2023/03/15 06:18:35;;;;;;;10.73;5.17;;;;;;;-1.04;100.00;96889.34;5041085;28;20426;-68
2023/03/15 06:21:03;;;;;;;12.27;5.17;;;;;;;-0.99;100.00;96896.81;5045739;28;20202;-68
2023/03/15 06:23:30;;;;;;;7.40;5.53;;;;;;;-1.00;100.00;96900.34;4997690;28;20202;-69
2023/03/15 06:25:58;;;;;;;6.60;5.97;;;;;;;-0.94;100.00;96903.31;5040280;28;20719;-67
2023/03/15 06:28:26;;;;;;;8.57;4.93;;;;;;;-0.91;100.00;96902.25;5043682;28;20202;-67
2023/03/15 06:30:55;;;;;;;8.33;5.20;;;;;;;-0.95;100.00;96908.63;5022661;28;20690;-67
2023/03/15 06:33:23;;;;;;;9.33;5.83;;;;;;;-0.91;100.00;96908.28;5039808;28;20206;-69
2023/03/15 06:35:50;;;;;;;11.60;5.97;;;;;;;-0.89;100.00;96909.00;5044476;28;20206;-69
2023/03/15 06:38:18;;;;;;;8.20;5.60;;;;;;;-0.85;100.00;96914.75;4991535;28;20233;-67
2023/03/15 06:40:46;;;;;;;13.20;7.37;;;;;;;-0.81;100.00;96920.56;5046768;28;20891;-68
2023/03/15 06:43:18;;;;;;;12.73;7.10;;;;;;;-0.75;100.00;96923.53;5044393;28;20213;-68
2023/03/15 06:45:46;;;;;;;8.50;6.03;;;;;;;-0.73;100.00;96923.41;5021424;28;20996;-67
2023/03/15 06:48:15;;;;;;;7.23;6.50;;;;;;;-0.68;100.00;96921.25;5042961;28;20693;-68
2023/03/15 06:50:43;;;;;;;11.10;7.53;;;;;;;-0.70;100.00;96914.53;5038579;28;20487;-67
2023/03/15 06:53:15;;;;;;;8.50;6.80;;;;;;;-0.68;100.00;96923.03;5019079;28;20439;-68
2023/03/15 06:55:42;;;;;;;10.43;6.53;;;;;;;-0.49;100.00;96938.06;5005559;28;20364;-67
2023/03/15 06:58:10;;;;;;;11.17;7.57;;;;;;;-0.44;100.00;96941.13;5043203;28;20352;-67
2023/03/15 07:00:38;;;;;;;13.17;7.03;;;;;;;-0.35;100.00;96939.56;5023297;28;21619;-67
2023/03/15 07:03:06;;;;;;;11.43;6.90;;;;;;;-0.22;100.00;96936.78;5042829;28;20371;-67
2023/03/15 07:05:36;;;;;;;7.37;6.00;;;;;;;-0.12;100.00;96937.72;5034963;28;20415;-65
2023/03/15 07:08:03;;;;;;;11.27;6.80;;;;;;;-0.25;100.00;96945.69;5037720;28;20673;-66
2023/03/15 07:10:31;;;;;;;7.10;6.20;;;;;;;-0.06;100.00;96944.22;4984485;28;20219;-67
2023/03/15 07:12:59;;;;;;;8.47;7.03;;;;;;;-0.07;100.00;96940.78;5046493;28;20584;-67
2023/03/15 07:15:27;;;;;;;8.67;6.63;;;;;;;-0.21;100.00;96941.88;5018754;28;20206;-67
2023/03/15 07:17:54;;;;;;;9.23;8.27;;;;;;;-0.30;100.00;96934.81;5043021;28;20222;-66
2023/03/15 07:20:22;;;;;;;10.37;6.80;;;;;;;-0.15;100.00;96927.56;5037909;28;20209;-67
2023/03/15 07:22:51;;;;;;;9.10;6.23;;;;;;;-0.01;100.00;96939.44;5042780;28;20285;-66
2023/03/15 07:25:22;;;;;;;7.77;6.20;;;;;;;-0.04;100.00;96937.94;4981598;28;20207;-67
2023/03/15 07:27:50;;;;;;;8.87;7.30;;;;;;;-0.26;100.00;96938.00;5037304;28;20230;-67
2023/03/15 07:30:18;;;;;;;8.50;6.40;;;;;;;-0.33;100.00;96938.47;5041632;28;20241;-67
2023/03/15 07:32:46;;;;;;;9.80;6.43;;;;;;;-0.20;100.00;96947.91;5018880;28;20211;-67
2023/03/15 07:35:15;;;;;;;12.40;7.30;;;;;;;-0.08;100.00;96951.31;5043378;28;20219;-67
2023/03/15 07:37:43;;;;;;;9.50;6.40;;;;;;;-0.01;100.00;96949.88;5034896;28;20462;-67
2023/03/15 07:40:14;;;;;;;8.33;6.67;;;;;;;0.06;100.00;96951.06;4991393;28;20215;-67
2023/03/15 07:42:43;;;;;;;8.50;6.63;;;;;;;0.22;100.00;96948.03;5043169;28;20346;-66
2023/03/15 07:45:11;;;;;;;9.67;7.33;;;;;;;0.19;100.00;96948.28;5037846;28;20229;-67
2023/03/15 07:47:39;;;;;;;9.33;6.87;;;;;;;0.26;100.00;96961.63;5027379;28;21253;-67
2023/03/15 07:50:08;;;;;;;10.70;7.10;;;;;;;0.62;100.00;96953.53;5042142;28;20286;-67
2023/03/15 07:52:36;;;;;;;7.63;6.93;;;;;;;1.00;100.00;96954.72;5035882;28;20713;-67
2023/03/15 07:55:07;;;;;;;11.50;8.00;;;;;;;1.13;100.00;96957.94;5033250;28;20229;-68
2023/03/15 07:57:36;;;;;;;8.23;7.50;;;;;;;0.63;100.00;96956.00;4985930;28;20230;-68
2023/03/15 08:00:05;;;;;;;14.10;7.47;;;;;;;0.59;100.00;96969.44;5043092;28;20201;-68
2023/03/15 08:02:33;;;;;;;9.13;6.53;;;;;;;1.17;100.00;96962.91;5020591;28;20233;-69
2023/03/15 08:05:00;;;;;;;9.90;8.07;;;;;;;1.23;100.00;96960.63;5042941;28;20527;-68
2023/03/15 08:07:28;;;;;;;12.07;7.60;;;;;;;0.99;100.00;96948.66;5030853;28;20226;-68
2023/03/15 08:09:56;;;;;;;10.17;6.70;;;;;;;0.69;100.00;96952.06;5040314;28;20220;-69
2023/03/15 08:12:24;;;;;;;7.73;6.23;;;;;;;0.47;100.00;96964.25;4996384;28;20631;-69
2023/03/15 08:14:53;;;;;;;10.57;8.27;;;;;;;0.68;100.00;96959.06;5043938;28;20679;-69
2023/03/15 08:17:21;;;;;;;12.33;6.60;;;;;;;0.84;100.00;96958.63;5031012;28;20226;-68
2023/03/15 08:19:49;;;;;;;10.50;6.93;;;;;;;1.06;100.00;96953.38;5038593;28;20318;-68
2023/03/15 08:22:16;;;;;;;15.00;7.73;;;;;;;1.26;100.00;96947.28;5040099;28;20634;-68
2023/03/15 08:24:44;;;;;;;9.40;7.87;;;;;;;1.52;100.00;96957.28;5034363;28;20534;-70
2023/03/15 08:27:12;;;;;;;13.20;7.73;;;;;;;1.66;100.00;96953.47;4995882;28;20248;-69
2023/03/15 08:29:40;;;;;;;7.17;6.53;;;;;;;2.29;100.00;96954.13;5041457;28;20487;-67
2023/03/15 08:32:09;;;;;;;8.43;6.47;;;;;;;2.21;100.00;96952.19;5036143;28;20218;-68
2023/03/15 08:34:37;;;;;;;9.93;6.87;;;;;;;1.43;100.00;96951.06;5021336;28;20222;-68
2023/03/15 08:37:05;;;;;;;8.20;6.33;;;;;;;1.26;100.00;96949.06;5032571;28;20230;-68
2023/03/15 08:39:35;;;;;;;12.87;6.90;;;;;;;1.11;100.00;96949.41;5034060;28;20221;-67
2023/03/15 08:42:02;;;;;;;9.10;6.10;;;;;;;1.00;100.00;96955.53;4993911;28;20426;-68
2023/03/15 08:44:30;;;;;;;11.27;7.23;;;;;;;0.90;100.00;96961.66;5045159;28;20195;-67
2023/03/15 08:46:58;;;;;;;7.10;6.50;;;;;;;0.85;100.00;96955.03;5039442;28;20241;-68
2023/03/15 08:49:27;;;;;;;10.23;7.30;;;;;;;1.11;100.00;96962.47;5026522;28;20203;-68
2023/03/15 08:51:55;;;;;;;13.27;7.27;;;;;;;1.24;100.00;96972.69;5046778;28;20199;-68
2023/03/15 08:54:24;;;;;;;9.93;7.27;;;;;;;1.57;100.00;96973.38;5049888;28;20745;-68
2023/03/15 08:56:52;;;;;;;7.50;6.67;;;;;;;1.66;100.00;96976.16;5055210;28;20207;-66
2023/03/15 08:59:19;;;;;;;8.90;8.03;;;;;;;1.67;100.00;96977.81;5004794;28;20222;-67
2023/03/15 09:01:59;;;;;;;13.23;7.20;;;;;;;2.22;100.00;96972.13;5044784;28;20199;-67
2023/03/15 09:04:28;;;;;;;7.73;6.87;;;;;;;2.74;100.00;96973.63;5043637;28;20985;-67
2023/03/15 09:06:56;;;;;;;9.10;6.20;;;;;;;2.88;100.00;96967.13;5025171;28;20610;-67
2023/03/15 09:09:24;;;;;;;7.70;6.20;;;;;;;2.69;100.00;96978.47;5037165;28;20658;-68
2023/03/15 09:11:52;;;;;;;10.83;6.57;;;;;;;2.93;100.00;96975.38;5049643;28;20282;-67
2023/03/15 09:14:20;;;;;;;10.13;7.07;;;;;;;3.93;100.00;96985.34;4997028;28;20216;-68
2023/03/15 09:16:47;;;;;;;11.93;6.57;;;;;;;4.02;96.83;96974.00;5042541;28;20652;-67
2023/03/15 09:19:16;;;;;;;7.97;6.20;;;;;;;4.08;93.80;96980.44;5045171;28;20590;-68
2023/03/15 09:21:46;;;;;;;6.90;4.97;;;;;;;3.37;91.40;96984.50;5026859;28;20207;-67
2023/03/15 09:24:13;;;;;;;5.20;4.77;;;;;;;3.19;89.96;96974.78;5040994;28;20329;-67
2023/03/15 09:26:41;;;;;;;5.07;4.67;;;;;;;3.04;88.81;96985.72;5045167;28;20224;-67
2023/03/15 09:29:09;;;;;;;8.60;5.13;;;;;;;2.85;89.61;96991.81;4999204;28;20648;-68
2023/03/15 09:31:36;;;;;;;8.97;5.00;;;;;;;3.15;89.55;96989.94;5038415;28;20460;-68
2023/03/15 09:34:04;;;;;;;5.03;4.13;;;;;;;3.47;88.34;96996.59;5045025;28;20738;-68
2023/03/15 09:36:32;;;;;;;7.50;4.33;;;;;;;3.61;85.85;96991.88;5025364;28;20497;-67
2023/03/15 09:39:01;;;;;;;6.33;3.80;;;;;;;3.86;86.85;96994.78;5043170;28;20249;-67
2023/03/15 09:41:41;;;;;;;4.13;3.70;;;;;;;3.24;80.57;96995.31;5044488;28;20601;-67
2023/03/15 09:44:14;;;;;;;4.00;3.43;;;;;;;3.69;79.32;97001.63;4996783;28;20214;-67
2023/03/15 09:46:53;;;;;;;6.23;4.10;;;;;;;3.83;80.12;97001.16;5042020;28;21004;-67
2023/03/15 09:49:34;;;;;;;4.83;3.53;;;;;;;3.89;78.95;97011.03;5027129;28;20226;-68
2023/03/15 09:52:04;;;;;;;4.73;4.20;;;;;;;3.01;78.38;97006.91;5034117;28;20211;-67
2023/03/15 09:54:39;;;;;;;4.60;3.70;;;;;;;3.29;78.78;97003.56;5027595;28;20207;-68
2023/03/15 09:57:13;;;;;;;4.90;3.37;;;;;;;3.08;76.82;97014.22;5039012;28;20218;-68
2023/03/15 09:59:43;;;;;;;6.33;2.93;;;;;;;3.02;76.97;97013.78;4995290;28;20328;-68
2023/03/15 10:02:18;;;;;;;6.57;3.73;;;;;;;3.37;75.33;97016.78;5046658;28;20199;-68
2023/03/15 10:04:46;;;;;;;5.63;3.03;;;;;;;3.84;75.52;97018.53;5037472;28;20327;-67
2023/03/15 10:07:15;;;;;;;5.30;3.40;;;;;;;3.88;74.27;97019.03;5044955;28;20253;-68
2023/03/15 10:09:45;;;;;;;5.17;3.70;;;;;;;4.35;73.94;97011.03;5026861;28;21471;-67
2023/03/15 10:12:15;;;;;;;3.13;2.83;;;;;;;4.35;72.23;97015.47;5044680;28;20203;-68
2023/03/15 10:14:56;;;;;;;3.57;3.00;;;;;;;3.89;73.05;97012.81;4990272;28;20821;-68
2023/03/15 10:17:30;;;;;;;3.10;2.90;;;;;;;4.23;73.67;97017.47;5048083;28;20636;-68
2023/03/15 10:20:00;;;;;;;6.07;2.60;;;;;;;4.22;71.23;97017.63;5046715;28;20222;-67
2023/03/15 10:22:32;;;;;;;8.70;3.30;;;;;;;4.43;70.85;97014.72;5026950;28;20289;-68
2023/03/15 10:25:04;;;;;;;4.80;3.57;;;;;;;3.98;73.02;97016.38;5030003;28;20218;-67
2023/03/15 10:27:37;;;;;;;6.43;3.03;;;;;;;3.96;71.21;97023.56;5039279;28;20219;-68
2023/03/15 10:30:15;;;;;;;3.63;2.73;;;;;;;4.34;74.27;97019.06;4992994;28;20254;-68
2023/03/15 10:32:44;;;;;;;4.53;2.97;;;;;;;4.13;74.16;97017.53;5037920;28;20209;-68
2023/03/15 10:35:14;;;;;;;5.07;2.90;;;;;;;4.59;74.41;97017.50;5045171;28;20673;-68
2023/03/15 10:37:42;;;;;;;5.53;3.07;;;;;;;4.17;71.77;97015.44;5038216;28;20470;-67
2023/03/15 10:40:15;;;;;;;3.60;2.93;;;;;;;4.25;74.86;97014.72;5044193;28;20250;-68
2023/03/15 10:42:44;;;;;;;3.00;2.67;;;;;;;3.73;71.71;97010.84;5028651;28;20273;-67
2023/03/15 10:45:22;;;;;;;3.13;2.60;;;;;;;3.68;74.00;97005.19;5034065;28;20202;-68
2023/03/15 10:47:51;;;;;;;3.03;2.73;;;;;;;3.72;74.37;96999.53;5036980;28;20314;-68
2023/03/15 10:50:29;;;;;;;8.73;3.83;;;;;;;3.96;76.13;97003.41;5038273;28;20213;-68
2023/03/15 10:52:58;;;;;;;7.43;3.00;;;;;;;3.72;73.06;97006.56;5044550;28;20210;-69
2023/03/15 10:55:32;;;;;;;4.13;3.60;;;;;;;3.53;71.55;97007.47;5033985;28;20225;-68
2023/03/15 10:58:13;;;;;;;3.67;3.37;;;;;;;3.37;73.22;96995.81;5030525;28;20229;-67
2023/03/15 11:00:49;;;;;;;12.03;3.53;;;;;;;3.72;71.34;96999.53;4996193;28;22858;-68
2023/03/15 11:03:19;;;;;;;2.70;2.50;;;;;;;4.10;70.93;96993.41;5033180;28;20680;-69
2023/03/15 11:05:48;;;;;;;3.77;2.90;;;;;;;4.24;66.07;96989.47;5045060;28;20403;-68
2023/03/15 11:08:17;;;;;;;2.70;2.50;;;;;;;4.07;66.89;96985.84;5032108;28;20221;-69
2023/03/15 11:10:55;;;;;;;4.43;2.63;;;;;;;4.05;66.20;96967.63;5043635;28;20704;-68
2023/03/15 11:13:24;;;;;;;4.60;2.83;;;;;;;3.97;67.20;96983.28;5026169;28;20921;-68
2023/03/15 11:16:02;;;;;;;2.30;2.20;;;;;;;4.25;68.96;96980.63;5044262;28;20215;-68
2023/03/15 11:18:34;;;;;;;4.80;3.17;;;;;;;4.70;68.78;96973.59;4995848;28;21145;-68
2023/03/15 11:21:05;;;;;;;4.03;2.40;;;;;;;4.69;66.20;96972.81;5048128;28;20228;-68
2023/03/15 11:23:35;;;;;;;2.97;2.63;;;;;;;4.76;67.64;96970.41;5033784;28;20394;-69
2023/03/15 11:26:05;;;;;;;8.23;3.13;;;;;;;4.70;68.11;96971.81;5047557;28;20572;-68
2023/03/15 11:28:35;;;;;;;6.03;2.47;;;;;;;4.40;67.79;96976.47;5021083;28;20433;-68
2023/03/15 11:31:04;;;;;;;4.93;3.10;;;;;;;4.05;66.92;96973.69;5041023;28;20395;-69
2023/03/15 11:33:38;;;;;;;3.53;2.57;;;;;;;3.79;68.72;96980.59;4996460;28;20211;-69
2023/03/15 11:36:10;;;;;;;3.93;2.60;;;;;;;3.69;68.51;96981.50;5044590;28;20229;-68
2023/03/15 11:38:42;;;;;;;4.17;2.67;;;;;;;3.80;68.91;96977.84;5040287;28;20202;-69